sensor_id;sensor_type;location;lat;lon;timestamp;pressure;altitude;pressure_sealevel;temperature;humidity
80892;BME280;70343;51.530;5.050;2023-10-09T00:01:42;102048.25;;;15.56;100.00
80892;BME280;70343;51.530;5.050;2023-10-09T00:04:10;102043.59;;;15.58;100.00
80892;BME280;70343;51.530;5.050;2023-10-09T00:06:36;102043.22;;;15.61;100.00
80892;BME280;70343;51.530;5.050;2023-10-09T00:09:04;102044.03;;;15.61;100.00
80892;BME280;70343;51.530;5.050;2023-10-09T00:11:44;102054.78;;;15.66;100.00
80892;BME280;70343;51.530;5.050;2023-10-09T00:14:12;102052.13;;;15.66;100.00
80892;BME280;70343;51.530;5.050;2023-10-09T00:16:41;102046.88;;;15.66;100.00
80892;BME280;70343;51.530;5.050;2023-10-09T00:19:14;102043.25;;;15.67;100.00
80892;BME280;70343;51.530;5.050;2023-10-09T00:21:47;102042.88;;;15.70;100.00
80892;BME280;70343;51.530;5.050;2023-10-09T00:24:13;102036.63;;;15.71;100.00
80892;BME280;70343;51.530;5.050;2023-10-09T00:26:45;102025.69;;;15.74;100.00
80892;BME280;70343;51.530;5.050;2023-10-09T00:29:12;102020.28;;;15.76;100.00
80892;BME280;70343;51.530;5.050;2023-10-09T00:31:55;102026.31;;;15.76;100.00
80892;BME280;70343;51.530;5.050;2023-10-09T00:34:29;102015.00;;;15.76;100.00
80892;BME280;70343;51.530;5.050;2023-10-09T00:36:55;102008.72;;;15.77;100.00
80892;BME280;70343;51.530;5.050;2023-10-09T00:39:23;101996.00;;;15.80;100.00
80892;BME280;70343;51.530;5.050;2023-10-09T00:42:06;102003.50;;;15.83;100.00
80892;BME280;70343;51.530;5.050;2023-10-09T00:44:33;102005.31;;;15.83;100.00
80892;BME280;70343;51.530;5.050;2023-10-09T00:47:12;102020.09;;;15.84;100.00
80892;BME280;70343;51.530;5.050;2023-10-09T00:52:45;102016.25;;;15.86;100.00
80892;BME280;70343;51.530;5.050;2023-10-09T00:55:17;102011.00;;;15.86;100.00
80892;BME280;70343;51.530;5.050;2023-10-09T00:57:49;102024.16;;;15.86;100.00
80892;BME280;70343;51.530;5.050;2023-10-09T01:00:16;102015.06;;;15.89;100.00
80892;BME280;70343;51.530;5.050;2023-10-09T01:03:05;102023.16;;;15.87;100.00
80892;BME280;70343;51.530;5.050;2023-10-09T01:06:00;102011.00;;;15.86;100.00
80892;BME280;70343;51.530;5.050;2023-10-09T01:08:42;102018.88;;;15.86;100.00
80892;BME280;70343;51.530;5.050;2023-10-09T01:11:10;102006.75;;;15.85;100.00
80892;BME280;70343;51.530;5.050;2023-10-09T01:13:44;102006.16;;;15.83;100.00
80892;BME280;70343;51.530;5.050;2023-10-09T01:16:13;102008.78;;;15.83;100.00
80892;BME280;70343;51.530;5.050;2023-10-09T01:18:55;102018.88;;;15.86;100.00
80892;BME280;70343;51.530;5.050;2023-10-09T01:21:25;102015.44;;;15.86;100.00
80892;BME280;70343;51.530;5.050;2023-10-09T01:23:52;102016.06;;;15.88;100.00
80892;BME280;70343;51.530;5.050;2023-10-09T01:29:08;102014.03;;;15.83;100.00
80892;BME280;70343;51.530;5.050;2023-10-09T01:31:43;102016.66;;;15.83;100.00
80892;BME280;70343;51.530;5.050;2023-10-09T01:34:12;102012.03;;;15.85;100.00
80892;BME280;70343;51.530;5.050;2023-10-09T01:36:39;102002.69;;;15.83;100.00
80892;BME280;70343;51.530;5.050;2023-10-09T01:39:05;102011.78;;;15.80;100.00
80892;BME280;70343;51.530;5.050;2023-10-09T01:41:51;102011.78;;;15.80;100.00
80892;BME280;70343;51.530;5.050;2023-10-09T01:47:07;102010.16;;;15.79;100.00
80892;BME280;70343;51.530;5.050;2023-10-09T01:49:36;101999.66;;;15.79;100.00
80892;BME280;70343;51.530;5.050;2023-10-09T01:52:08;102001.25;;;15.80;100.00
80892;BME280;70343;51.530;5.050;2023-10-09T01:54:36;102006.91;;;15.77;100.00
80892;BME280;70343;51.530;5.050;2023-10-09T01:57:09;102006.91;;;15.77;100.00
80892;BME280;70343;51.530;5.050;2023-10-09T01:59:42;102002.84;;;15.75;100.00
80892;BME280;70343;51.530;5.050;2023-10-09T02:02:17;101995.78;;;15.75;100.00
80892;BME280;70343;51.530;5.050;2023-10-09T02:05:00;101990.53;;;15.75;100.00
80892;BME280;70343;51.530;5.050;2023-10-09T02:07:38;101994.34;;;15.73;100.00
80892;BME280;70343;51.530;5.050;2023-10-09T02:10:12;101993.16;;;15.75;100.00
80892;BME280;70343;51.530;5.050;2023-10-09T02:12:51;102006.66;;;15.72;100.00
80892;BME280;70343;51.530;5.050;2023-10-09T02:15:30;102005.69;;;15.73;100.00
80892;BME280;70343;51.530;5.050;2023-10-09T02:18:13;102002.44;;;15.71;100.00
80892;BME280;70343;51.530;5.050;2023-10-09T02:20:46;101986.03;;;15.69;100.00
80892;BME280;70343;51.530;5.050;2023-10-09T02:23:13;101981.75;;;15.68;100.00
80892;BME280;70343;51.530;5.050;2023-10-09T02:25:42;101980.94;;;15.61;100.00
80892;BME280;70343;51.530;5.050;2023-10-09T02:28:09;101975.28;;;15.64;100.00
80892;BME280;70343;51.530;5.050;2023-10-09T02:30:45;101970.81;;;15.65;100.00
80892;BME280;70343;51.530;5.050;2023-10-09T02:33:17;101973.25;;;15.66;100.00
80892;BME280;70343;51.530;5.050;2023-10-09T02:35:58;101979.97;;;15.69;100.00
80892;BME280;70343;51.530;5.050;2023-10-09T02:38:30;101975.28;;;15.64;100.00
80892;BME280;70343;51.530;5.050;2023-10-09T02:40:59;101983.16;;;15.64;100.00
80892;BME280;70343;51.530;5.050;2023-10-09T02:43:34;101973.72;;;15.70;100.00
80892;BME280;70343;51.530;5.050;2023-10-09T02:46:19;101968.19;;;15.65;100.00
80892;BME280;70343;51.530;5.050;2023-10-09T02:48:49;101966.53;;;15.57;100.00
80892;BME280;70343;51.530;5.050;2023-10-09T02:53:57;101980.09;;;15.61;100.00
80892;BME280;70343;51.530;5.050;2023-10-09T02:56:25;101985.38;;;15.61;100.00
80892;BME280;70343;51.530;5.050;2023-10-09T02:59:02;101977.69;;;15.59;100.00
80892;BME280;70343;51.530;5.050;2023-10-09T03:01:36;101983.34;;;15.56;100.00
80892;BME280;70343;51.530;5.050;2023-10-09T03:04:03;101986.59;;;15.58;100.00
80892;BME280;70343;51.530;5.050;2023-10-09T03:06:31;101961.28;;;15.57;100.00
80892;BME280;70343;51.530;5.050;2023-10-09T03:08:58;101961.91;;;15.59;100.00
80892;BME280;70343;51.530;5.050;2023-10-09T03:11:24;101949.72;;;15.52;100.00
80892;BME280;70343;51.530;5.050;2023-10-09T03:13:52;101942.03;;;15.50;100.00
80892;BME280;70343;51.530;5.050;2023-10-09T03:16:18;101944.69;;;15.50;100.00
80892;BME280;70343;51.530;5.050;2023-10-09T03:18:52;101944.06;;;15.48;100.00
80892;BME280;70343;51.530;5.050;2023-10-09T03:21:20;101944.69;;;15.50;100.00
80892;BME280;70343;51.530;5.050;2023-10-09T03:23:47;101933.53;;;15.48;100.00
80892;BME280;70343;51.530;5.050;2023-10-09T03:26:19;101928.28;;;15.48;100.00
80892;BME280;70343;51.530;5.050;2023-10-09T03:28:46;101936.38;;;15.53;100.00
80892;BME280;70343;51.530;5.050;2023-10-09T03:31:12;101927.25;;;15.49;100.00
80892;BME280;70343;51.530;5.050;2023-10-09T03:33:38;101925.06;;;15.53;100.00
80892;BME280;70343;51.530;5.050;2023-10-09T03:36:04;101921.00;;;15.50;100.00
80892;BME280;70343;51.530;5.050;2023-10-09T03:38:40;101914.53;;;15.53;100.00
80892;BME280;70343;51.530;5.050;2023-10-09T03:41:07;101921.81;;;15.51;100.00
80892;BME280;70343;51.530;5.050;2023-10-09T03:43:38;101924.63;;;15.49;100.00
80892;BME280;70343;51.530;5.050;2023-10-09T03:46:10;101926.28;;;15.50;100.00
80892;BME280;70343;51.530;5.050;2023-10-09T03:48:58;101925.06;;;15.53;100.00
80892;BME280;70343;51.530;5.050;2023-10-09T03:51:29;101933.53;;;15.48;100.00
80892;BME280;70343;51.530;5.050;2023-10-09T03:53:54;101940.41;;;15.49;100.00
80892;BME280;70343;51.530;5.050;2023-10-09T03:56:20;101943.84;;;15.50;100.00
80892;BME280;70343;51.530;5.050;2023-10-09T03:58:48;101936.38;;;15.53;100.00
80892;BME280;70343;51.530;5.050;2023-10-09T04:01:21;101936.63;;;15.58;100.00
80892;BME280;70343;51.530;5.050;2023-10-09T04:03:53;101934.53;;;15.47;100.00
80892;BME280;70343;51.530;5.050;2023-10-09T04:06:29;101920.78;;;15.45;100.00
80892;BME280;70343;51.530;5.050;2023-10-09T04:08:59;101929.53;;;15.52;100.00
80892;BME280;70343;51.530;5.050;2023-10-09T04:11:25;101920.63;;;15.53;100.00
80892;BME280;70343;51.530;5.050;2023-10-09T04:13:51;101915.34;;;15.53;100.00
80892;BME280;70343;51.530;5.050;2023-10-09T04:16:21;101921.63;;;15.52;100.00
80892;BME280;70343;51.530;5.050;2023-10-09T04:19:01;101907.47;;;15.53;100.00
80892;BME280;70343;51.530;5.050;2023-10-09T04:21:37;101926.69;;;15.54;100.00
80892;BME280;70343;51.530;5.050;2023-10-09T04:24:07;101946.91;;;15.53;100.00
80892;BME280;70343;51.530;5.050;2023-10-09T04:26:43;101955.81;;;15.52;100.00
80892;BME280;70343;51.530;5.050;2023-10-09T04:29:14;101953.81;;;15.54;100.00
80892;BME280;70343;51.530;5.050;2023-10-09T04:31:58;101949.94;;;15.50;100.00
80892;BME280;70343;51.530;5.050;2023-10-09T04:34:26;101961.44;;;15.49;100.00
80892;BME280;70343;51.530;5.050;2023-10-09T04:37:00;101958.59;;;15.51;100.00
80892;BME280;70343;51.530;5.050;2023-10-09T04:39:27;101950.09;;;15.49;100.00
80892;BME280;70343;51.530;5.050;2023-10-09T04:41:56;101955.34;;;15.49;100.00
80892;BME280;70343;51.530;5.050;2023-10-09T04:44:42;101949.31;;;15.48;100.00
80892;BME280;70343;51.530;5.050;2023-10-09T04:47:33;101937.16;;;15.47;100.00
80892;BME280;70343;51.530;5.050;2023-10-09T04:50:05;101935.97;;;15.50;100.00
80892;BME280;70343;51.530;5.050;2023-10-09T04:53:01;101935.56;;;15.46;100.00
80892;BME280;70343;51.530;5.050;2023-10-09T04:55:47;101935.56;;;15.46;100.00
80892;BME280;70343;51.530;5.050;2023-10-09T04:58:24;101933.53;;;15.48;100.00
80892;BME280;70343;51.530;5.050;2023-10-09T05:00:53;101923.19;;;15.47;100.00
80892;BME280;70343;51.530;5.050;2023-10-09T05:03:25;101923.03;;;15.48;100.00
80892;BME280;70343;51.530;5.050;2023-10-09T05:05:55;101943.25;;;15.48;100.00
80892;BME280;70343;51.530;5.050;2023-10-09T05:08:25;101923.03;;;15.48;100.00
80892;BME280;70343;51.530;5.050;2023-10-09T05:11:01;101925.88;;;15.53;100.00
80892;BME280;70343;51.530;5.050;2023-10-09T05:13:28;101931.53;;;15.50;100.00
80892;BME280;70343;51.530;5.050;2023-10-09T05:18:47;101937.56;;;15.51;100.00
80892;BME280;70343;51.530;5.050;2023-10-09T05:23:58;101945.44;;;15.44;100.00
80892;BME280;70343;51.530;5.050;2023-10-09T05:26:44;101971.53;;;15.46;100.00
80892;BME280;70343;51.530;5.050;2023-10-09T05:32:04;101975.97;;;15.45;100.00
80892;BME280;70343;51.530;5.050;2023-10-09T05:34:39;101975.34;;;15.43;100.00
80892;BME280;70343;51.530;5.050;2023-10-09T05:37:24;101967.84;;;15.40;100.00
80892;BME280;70343;51.530;5.050;2023-10-09T05:39:59;101971.09;;;15.42;100.00
80892;BME280;70343;51.530;5.050;2023-10-09T05:42:25;101968.28;;;15.44;100.00
80892;BME280;70343;51.530;5.050;2023-10-09T05:45:08;101978.59;;;15.45;100.00
80892;BME280;70343;51.530;5.050;2023-10-09T05:47:54;101969.09;;;15.44;100.00
80892;BME280;70343;51.530;5.050;2023-10-09T05:50:24;101986.28;;;15.47;100.00
80892;BME280;70343;51.530;5.050;2023-10-09T05:52:51;101979.41;;;15.46;100.00
80892;BME280;70343;51.530;5.050;2023-10-09T05:55:17;101982.88;;;15.46;100.00
80892;BME280;70343;51.530;5.050;2023-10-09T05:58:01;101997.63;;;15.47;100.00
80892;BME280;70343;51.530;5.050;2023-10-09T06:00:46;101995.00;;;15.47;100.00
80892;BME280;70343;51.530;5.050;2023-10-09T06:03:30;101995.38;;;15.44;100.00
80892;BME280;70343;51.530;5.050;2023-10-09T06:06:15;101995.00;;;15.47;100.00
80892;BME280;70343;51.530;5.050;2023-10-09T06:09:02;101984.47;;;15.47;100.00
80892;BME280;70343;51.530;5.050;2023-10-09T06:11:47;101984.47;;;15.47;100.00
80892;BME280;70343;51.530;5.050;2023-10-09T06:14:21;101978.22;;;15.48;100.00
80892;BME280;70343;51.530;5.050;2023-10-09T06:16:56;101981.22;;;15.45;100.00
80892;BME280;70343;51.530;5.050;2023-10-09T06:19:23;101984.47;;;15.47;100.00
80892;BME280;70343;51.530;5.050;2023-10-09T06:21:55;101987.50;;;15.44;100.00
80892;BME280;70343;51.530;5.050;2023-10-09T06:24:41;101977.59;;;15.46;100.00
80892;BME280;70343;51.530;5.050;2023-10-09T06:27:29;101981.47;;;15.50;100.00
80892;BME280;70343;51.530;5.050;2023-10-09T06:29:58;101995.88;;;15.54;100.00
80892;BME280;70343;51.530;5.050;2023-10-09T06:32:43;101995.66;;;15.56;100.00
80892;BME280;70343;51.530;5.050;2023-10-09T06:35:20;102005.97;;;15.57;100.00
80892;BME280;70343;51.530;5.050;2023-10-09T06:37:57;101995.25;;;15.59;100.00
80892;BME280;70343;51.530;5.050;2023-10-09T06:43:16;102001.34;;;15.59;100.00
80892;BME280;70343;51.530;5.050;2023-10-09T06:45:51;101997.13;;;15.65;100.00
80892;BME280;70343;51.530;5.050;2023-10-09T06:48:21;101986.59;;;15.65;100.00
80892;BME280;70343;51.530;5.050;2023-10-09T06:51:06;101972.63;;;15.64;100.00
80892;BME280;70343;51.530;5.050;2023-10-09T06:53:51;101975.31;;;15.71;100.00
80892;BME280;70343;51.530;5.050;2023-10-09T06:59:00;101963.41;;;15.75;100.00
80892;BME280;70343;51.530;5.050;2023-10-09T07:01:50;101955.56;;;15.81;100.00
80892;BME280;70343;51.530;5.050;2023-10-09T07:04:35;101951.06;;;15.75;100.00
80892;BME280;70343;51.530;5.050;2023-10-09T07:07:00;101942.78;;;15.78;100.00
80892;BME280;70343;51.530;5.050;2023-10-09T07:09:27;101935.13;;;15.83;100.00
80892;BME280;70343;51.530;5.050;2023-10-09T07:12:11;101934.97;;;15.98;100.00
80892;BME280;70343;51.530;5.050;2023-10-09T07:14:46;101933.31;;;15.90;100.00
80892;BME280;70343;51.530;5.050;2023-10-09T07:17:11;101943.25;;;15.95;100.00
80892;BME280;70343;51.530;5.050;2023-10-09T07:19:56;101953.22;;;16.06;100.00
80892;BME280;70343;51.530;5.050;2023-10-09T07:22:35;101962.50;;;16.02;100.00
80892;BME280;70343;51.530;5.050;2023-10-09T07:25:05;101985.78;;;15.98;100.00
80892;BME280;70343;51.530;5.050;2023-10-09T07:27:40;101997.72;;;16.01;100.00
80892;BME280;70343;51.530;5.050;2023-10-09T07:30:11;102015.94;;;16.02;100.00
80892;BME280;70343;51.530;5.050;2023-10-09T07:35:49;102002.63;;;16.17;100.00
80892;BME280;70343;51.530;5.050;2023-10-09T07:38:21;102013.59;;;16.21;100.00
80892;BME280;70343;51.530;5.050;2023-10-09T07:41:09;102027.16;;;16.24;100.00
80892;BME280;70343;51.530;5.050;2023-10-09T07:43:37;102026.19;;;16.32;100.00
80892;BME280;70343;51.530;5.050;2023-10-09T07:46:10;102016.69;;;16.37;100.00
80892;BME280;70343;51.530;5.050;2023-10-09T07:48:59;102013.66;;;16.40;100.00
80892;BME280;70343;51.530;5.050;2023-10-09T07:51:37;102007.78;;;16.45;100.00
80892;BME280;70343;51.530;5.050;2023-10-09T07:54:03;102006.78;;;16.46;100.00
80892;BME280;70343;51.530;5.050;2023-10-09T07:56:39;101997.09;;;16.53;100.00
80892;BME280;70343;51.530;5.050;2023-10-09T07:59:14;102000.38;;;16.61;100.00
80892;BME280;70343;51.530;5.050;2023-10-09T08:01:47;102004.63;;;16.62;100.00
80892;BME280;70343;51.530;5.050;2023-10-09T08:04:23;102001.16;;;16.62;100.00
80892;BME280;70343;51.530;5.050;2023-10-09T08:07:10;102007.66;;;16.66;100.00
80892;BME280;70343;51.530;5.050;2023-10-09T08:09:47;102003.63;;;16.70;100.00
80892;BME280;70343;51.530;5.050;2023-10-09T08:12:16;102012.56;;;16.82;100.00
80892;BME280;70343;51.530;5.050;2023-10-09T08:15:05;102009.75;;;16.97;100.00
80892;BME280;70343;51.530;5.050;2023-10-09T08:17:51;102011.34;;;16.98;100.00
80892;BME280;70343;51.530;5.050;2023-10-09T08:20:38;102007.13;;;16.97;100.00
80892;BME280;70343;51.530;5.050;2023-10-09T08:23:22;102012.78;;;17.13;100.00
80892;BME280;70343;51.530;5.050;2023-10-09T08:26:15;102020.28;;;17.23;100.00
80892;BME280;70343;51.530;5.050;2023-10-09T08:28:53;102016.81;;;17.29;100.00
80892;BME280;70343;51.530;5.050;2023-10-09T08:31:20;102015.19;;;17.34;100.00
80892;BME280;70343;51.530;5.050;2023-10-09T08:34:10;102015.63;;;17.38;100.00
80892;BME280;70343;51.530;5.050;2023-10-09T08:36:49;102008.06;;;17.48;100.00
80892;BME280;70343;51.530;5.050;2023-10-09T08:39:26;102006.06;;;17.56;100.00
80892;BME280;70343;51.530;5.050;2023-10-09T08:41:55;102001.97;;;17.73;100.00
80892;BME280;70343;51.530;5.050;2023-10-09T08:44:25;101994.47;;;17.70;100.00
80892;BME280;70343;51.530;5.050;2023-10-09T08:46:56;101984.53;;;17.72;100.00
80892;BME280;70343;51.530;5.050;2023-10-09T08:49:23;101994.22;;;17.92;100.00
80892;BME280;70343;51.530;5.050;2023-10-09T08:51:49;101992.53;;;18.04;100.00
80892;BME280;70343;51.530;5.050;2023-10-09T08:54:14;101990.22;;;18.20;100.00
80892;BME280;70343;51.530;5.050;2023-10-09T08:56:41;101991.81;;;18.28;100.00
80892;BME280;70343;51.530;5.050;2023-10-09T08:59:15;101983.34;;;18.19;100.00
80892;BME280;70343;51.530;5.050;2023-10-09T09:01:48;101980.59;;;18.39;100.00
80892;BME280;70343;51.530;5.050;2023-10-09T09:04:37;101989.09;;;18.41;100.00
80892;BME280;70343;51.530;5.050;2023-10-09T09:07:22;101987.91;;;18.37;100.00
80892;BME280;70343;51.530;5.050;2023-10-09T09:09:56;101985.25;;;18.43;100.00
80892;BME280;70343;51.530;5.050;2023-10-09T09:12:46;101989.09;;;18.41;100.00
80892;BME280;70343;51.530;5.050;2023-10-09T09:15:15;101996.00;;;18.48;100.00
80892;BME280;70343;51.530;5.050;2023-10-09T09:17:45;101986.78;;;18.57;100.00
80892;BME280;70343;51.530;5.050;2023-10-09T09:20:24;101993.91;;;18.57;100.00
80892;BME280;70343;51.530;5.050;2023-10-09T09:22:59;101994.09;;;18.62;100.00
80892;BME280;70343;51.530;5.050;2023-10-09T09:28:09;102022.72;;;18.65;100.00
80892;BME280;70343;51.530;5.050;2023-10-09T09:30:38;102019.81;;;18.73;100.00
80892;BME280;70343;51.530;5.050;2023-10-09T09:33:19;102037.19;;;18.87;100.00
80892;BME280;70343;51.530;5.050;2023-10-09T09:36:05;102043.84;;;18.96;100.00
80892;BME280;70343;51.530;5.050;2023-10-09T09:38:35;102049.31;;;19.01;100.00
80892;BME280;70343;51.530;5.050;2023-10-09T09:41:22;102049.09;;;19.03;100.00
80892;BME280;70343;51.530;5.050;2023-10-09T09:43:52;102056.66;;;18.99;100.00
80892;BME280;70343;51.530;5.050;2023-10-09T09:46:19;102047.94;;;18.92;100.00
80892;BME280;70343;51.530;5.050;2023-10-09T09:48:45;102053.69;;;18.83;100.00
80892;BME280;70343;51.530;5.050;2023-10-09T09:51:13;102046.00;;;19.06;100.00
80892;BME280;70343;51.530;5.050;2023-10-09T09:53:43;102049.69;;;19.05;100.00
80892;BME280;70343;51.530;5.050;2023-10-09T09:56:15;102055.72;;;19.12;100.00
80892;BME280;70343;51.530;5.050;2023-10-09T09:58:49;102063.88;;;19.10;99.59
80892;BME280;70343;51.530;5.050;2023-10-09T10:01:20;102064.50;;;19.06;100.00
80892;BME280;70343;51.530;5.050;2023-10-09T10:03:56;102065.88;;;19.15;100.00
80892;BME280;70343;51.530;5.050;2023-10-09T10:06:24;102073.59;;;19.16;100.00
80892;BME280;70343;51.530;5.050;2023-10-09T10:08:53;102083.22;;;19.35;100.00
80892;BME280;70343;51.530;5.050;2023-10-09T10:11:42;102081.63;;;19.34;99.26
80892;BME280;70343;51.530;5.050;2023-10-09T10:14:10;102076.47;;;19.39;100.00
80892;BME280;70343;51.530;5.050;2023-10-09T10:17:13;102075.53;;;19.34;99.53
80892;BME280;70343;51.530;5.050;2023-10-09T10:20:08;102071.78;;;19.41;98.72
80892;BME280;70343;51.530;5.050;2023-10-09T10:22:42;102069.25;;;19.53;100.00
80892;BME280;70343;51.530;5.050;2023-10-09T10:28:22;102070.44;;;19.57;99.75
80892;BME280;70343;51.530;5.050;2023-10-09T10:30:57;102064.25;;;19.63;99.30
80892;BME280;70343;51.530;5.050;2023-10-09T10:33:27;102066.56;;;19.78;99.07
80892;BME280;70343;51.530;5.050;2023-10-09T10:36:12;102067.13;;;19.80;97.58
80892;BME280;70343;51.530;5.050;2023-10-09T10:39:08;102065.66;;;19.84;98.02
80892;BME280;70343;51.530;5.050;2023-10-09T10:41:58;102050.19;;;19.87;97.32
80892;BME280;70343;51.530;5.050;2023-10-09T10:44:31;102057.47;;;19.74;95.83
80892;BME280;70343;51.530;5.050;2023-10-09T10:47:03;102056.56;;;19.80;97.50
80892;BME280;70343;51.530;5.050;2023-10-09T10:49:30;102058.41;;;19.79;97.68
80892;BME280;70343;51.530;5.050;2023-10-09T10:52:06;102065.81;;;19.71;98.59
80892;BME280;70343;51.530;5.050;2023-10-09T10:54:43;102062.84;;;19.85;97.91
80892;BME280;70343;51.530;5.050;2023-10-09T10:59:55;102070.22;;;20.13;97.27
80892;BME280;70343;51.530;5.050;2023-10-09T11:02:31;102063.78;;;20.09;97.04
80892;BME280;70343;51.530;5.050;2023-10-09T11:04:57;102076.56;;;20.12;95.91
80892;BME280;70343;51.530;5.050;2023-10-09T11:07:40;102069.22;;;19.96;96.07
80892;BME280;70343;51.530;5.050;2023-10-09T11:10:06;102069.66;;;19.93;95.92
80892;BME280;70343;51.530;5.050;2023-10-09T11:15:12;102061.50;;;19.94;96.12
80892;BME280;70343;51.530;5.050;2023-10-09T11:18:00;102066.13;;;20.17;96.12
80892;BME280;70343;51.530;5.050;2023-10-09T11:20:51;102062.31;;;20.31;96.03
80892;BME280;70343;51.530;5.050;2023-10-09T11:23:23;102067.81;;;20.11;96.02
80892;BME280;70343;51.530;5.050;2023-10-09T11:26:15;102066.91;;;20.24;96.49
80892;BME280;70343;51.530;5.050;2023-10-09T11:32:04;102072.69;;;20.14;94.40
80892;BME280;70343;51.530;5.050;2023-10-09T11:34:31;102066.72;;;20.19;94.40
80892;BME280;70343;51.530;5.050;2023-10-09T11:37:16;102066.28;;;20.40;93.27
80892;BME280;70343;51.530;5.050;2023-10-09T11:39:41;102066.53;;;20.50;92.71
80892;BME280;70343;51.530;5.050;2023-10-09T11:42:20;102069.47;;;20.60;93.11
80892;BME280;70343;51.530;5.050;2023-10-09T11:45:22;102063.53;;;20.76;92.14
80892;BME280;70343;51.530;5.050;2023-10-09T11:47:56;102062.56;;;21.00;93.70
80892;BME280;70343;51.530;5.050;2023-10-09T11:50:42;102066.25;;;20.99;91.78
80892;BME280;70343;51.530;5.050;2023-10-09T11:53:17;102072.84;;;21.08;92.94
80892;BME280;70343;51.530;5.050;2023-10-09T11:55:48;102060.31;;;21.15;92.71
80892;BME280;70343;51.530;5.050;2023-10-09T11:58:15;102074.56;;;21.03;91.99
80892;BME280;70343;51.530;5.050;2023-10-09T12:01:11;102070.03;;;20.92;91.04
80892;BME280;70343;51.530;5.050;2023-10-09T12:03:41;102064.06;;;20.96;90.56
80892;BME280;70343;51.530;5.050;2023-10-09T12:06:08;102073.34;;;20.87;89.90
80892;BME280;70343;51.530;5.050;2023-10-09T12:08:38;102063.66;;;20.81;89.86
80892;BME280;70343;51.530;5.050;2023-10-09T12:11:05;102065.03;;;20.72;89.83
80892;BME280;70343;51.530;5.050;2023-10-09T12:13:35;102064.13;;;20.78;91.00
80892;BME280;70343;51.530;5.050;2023-10-09T12:16:03;102055.06;;;20.97;90.85
80892;BME280;70343;51.530;5.050;2023-10-09T12:18:33;102057.81;;;20.91;90.38
80892;BME280;70343;51.530;5.050;2023-10-09T12:21:00;102040.19;;;20.96;90.69
80892;BME280;70343;51.530;5.050;2023-10-09T12:23:30;102043.69;;;21.08;90.18
80892;BME280;70343;51.530;5.050;2023-10-09T12:26:01;102045.19;;;21.04;89.99
80892;BME280;70343;51.530;5.050;2023-10-09T12:28:27;102053.38;;;21.14;89.88
80892;BME280;70343;51.530;5.050;2023-10-09T12:30:54;102051.88;;;21.07;90.36
80892;BME280;70343;51.530;5.050;2023-10-09T12:33:20;102043.81;;;21.13;89.72
80892;BME280;70343;51.530;5.050;2023-10-09T12:35:54;102039.03;;;20.92;89.02
80892;BME280;70343;51.530;5.050;2023-10-09T12:38:26;102035.72;;;21.08;90.53
80892;BME280;70343;51.530;5.050;2023-10-09T12:41:07;102029.41;;;21.09;88.36
80892;BME280;70343;51.530;5.050;2023-10-09T12:43:46;102027.00;;;21.31;86.76
80892;BME280;70343;51.530;5.050;2023-10-09T12:46:12;102031.25;;;21.44;88.69
80892;BME280;70343;51.530;5.050;2023-10-09T12:48:45;102027.31;;;21.58;87.68
80892;BME280;70343;51.530;5.050;2023-10-09T12:51:14;102022.81;;;21.70;87.46
80892;BME280;70343;51.530;5.050;2023-10-09T12:53:43;102021.00;;;21.59;87.02
80892;BME280;70343;51.530;5.050;2023-10-09T12:56:09;102022.91;;;21.75;86.31
80892;BME280;70343;51.530;5.050;2023-10-09T12:58:40;102017.84;;;21.62;84.42
80892;BME280;70343;51.530;5.050;2023-10-09T13:01:20;102007.56;;;21.65;84.04
80892;BME280;70343;51.530;5.050;2023-10-09T13:03:45;102004.31;;;21.98;84.35
80892;BME280;70343;51.530;5.050;2023-10-09T13:06:14;101993.13;;;22.24;83.68
80892;BME280;70343;51.530;5.050;2023-10-09T13:08:41;101997.88;;;22.22;82.55
80892;BME280;70343;51.530;5.050;2023-10-09T13:11:09;101994.38;;;22.33;81.04
80892;BME280;70343;51.530;5.050;2023-10-09T13:13:40;101996.53;;;22.08;79.87
80892;BME280;70343;51.530;5.050;2023-10-09T13:16:10;102004.41;;;22.03;81.01
80892;BME280;70343;51.530;5.050;2023-10-09T13:18:51;102008.78;;;22.09;81.82
80892;BME280;70343;51.530;5.050;2023-10-09T13:21:24;102020.75;;;22.23;81.70
80892;BME280;70343;51.530;5.050;2023-10-09T13:24:00;102025.31;;;21.99;81.74
80892;BME280;70343;51.530;5.050;2023-10-09T13:26:27;102030.34;;;21.84;81.23
80892;BME280;70343;51.530;5.050;2023-10-09T13:28:58;102027.13;;;22.10;82.03
80892;BME280;70343;51.530;5.050;2023-10-09T13:31:25;102017.28;;;22.23;82.02
80892;BME280;70343;51.530;5.050;2023-10-09T13:33:54;102014.81;;;22.33;82.18
80892;BME280;70343;51.530;5.050;2023-10-09T13:36:21;102008.22;;;22.35;81.76
80892;BME280;70343;51.530;5.050;2023-10-09T13:38:57;102015.03;;;22.03;77.74
80892;BME280;70343;51.530;5.050;2023-10-09T13:41:23;102016.66;;;22.04;80.40
80892;BME280;70343;51.530;5.050;2023-10-09T13:43:55;102020.28;;;21.86;80.67
80892;BME280;70343;51.530;5.050;2023-10-09T13:46:23;102025.56;;;21.75;80.24
80892;BME280;70343;51.530;5.050;2023-10-09T13:48:49;102026.63;;;21.74;80.74
80892;BME280;70343;51.530;5.050;2023-10-09T13:51:17;102026.28;;;21.82;79.91
80892;BME280;70343;51.530;5.050;2023-10-09T13:53:45;102018.66;;;21.85;80.75
80892;BME280;70343;51.530;5.050;2023-10-09T13:56:15;102019.22;;;21.87;80.22
80892;BME280;70343;51.530;5.050;2023-10-09T13:58:48;102019.66;;;22.07;80.76
80892;BME280;70343;51.530;5.050;2023-10-09T14:01:19;102017.56;;;22.09;79.70